Terminal Aerodrome Forecast
Issued by NWS Charleston, WV

Current Version | Previous Version | Text Only | Print | Product List | Glossary Off
Versions: 1 2 3 4 5 6 7 8 9 10 11 12 13 14 15 16 17 18 19 20 21 22 23 24 25 26 27 28 29

000
FTUS41 KRLX 251400 AAA
TAFHTS
TAF AMD
KHTS 251445Z 2515/2612 12005KT P6SM SCT045
     FM252200 09004KT P6SM FEW050
     FM260800 00000KT 2SM BR SKC
     FM261100 00000KT 3/4SM BR SCT001=

USA.gov is the U.S. government's official web portal to all federal, state and local government web resources and services.